sensor_id;sensor_type;location;lat;lon;timestamp;P1;durP1;ratioP1;P2;durP2;ratioP2
18505;SDS011;9382;53.242;10.438;2022-11-15T00:02:02;43.13;;;25.93;;
18505;SDS011;9382;53.242;10.438;2022-11-15T00:04:29;43.17;;;24.90;;
18505;SDS011;9382;53.242;10.438;2022-11-15T00:06:56;45.00;;;25.17;;
18505;SDS011;9382;53.242;10.438;2022-11-15T00:09:24;46.00;;;27.30;;
18505;SDS011;9382;53.242;10.438;2022-11-15T00:11:51;44.33;;;26.13;;
18505;SDS011;9382;53.242;10.438;2022-11-15T00:14:18;40.67;;;24.13;;
18505;SDS011;9382;53.242;10.438;2022-11-15T00:16:45;44.93;;;23.87;;
18505;SDS011;9382;53.242;10.438;2022-11-15T00:19:12;41.67;;;24.30;;
18505;SDS011;9382;53.242;10.438;2022-11-15T00:21:38;42.03;;;23.47;;
18505;SDS011;9382;53.242;10.438;2022-11-15T00:24:05;43.33;;;23.90;;
18505;SDS011;9382;53.242;10.438;2022-11-15T00:26:34;40.73;;;23.07;;
18505;SDS011;9382;53.242;10.438;2022-11-15T00:29:00;39.30;;;22.83;;
18505;SDS011;9382;53.242;10.438;2022-11-15T00:31:27;40.70;;;24.57;;
18505;SDS011;9382;53.242;10.438;2022-11-15T00:33:54;41.00;;;22.60;;
18505;SDS011;9382;53.242;10.438;2022-11-15T00:36:20;43.07;;;23.53;;
18505;SDS011;9382;53.242;10.438;2022-11-15T00:38:47;40.77;;;22.97;;
18505;SDS011;9382;53.242;10.438;2022-11-15T00:41:14;39.33;;;22.67;;
18505;SDS011;9382;53.242;10.438;2022-11-15T00:43:42;41.27;;;22.33;;
18505;SDS011;9382;53.242;10.438;2022-11-15T00:46:09;38.07;;;23.27;;
18505;SDS011;9382;53.242;10.438;2022-11-15T00:48:36;40.63;;;22.93;;
18505;SDS011;9382;53.242;10.438;2022-11-15T00:51:03;38.67;;;22.73;;
18505;SDS011;9382;53.242;10.438;2022-11-15T00:53:30;36.37;;;21.43;;
18505;SDS011;9382;53.242;10.438;2022-11-15T00:55:57;42.47;;;23.07;;
18505;SDS011;9382;53.242;10.438;2022-11-15T00:58:23;39.27;;;22.43;;
18505;SDS011;9382;53.242;10.438;2022-11-15T01:00:51;41.30;;;24.33;;
18505;SDS011;9382;53.242;10.438;2022-11-15T01:03:18;40.13;;;23.37;;
18505;SDS011;9382;53.242;10.438;2022-11-15T01:05:45;41.60;;;22.63;;
18505;SDS011;9382;53.242;10.438;2022-11-15T01:08:12;41.47;;;23.37;;
18505;SDS011;9382;53.242;10.438;2022-11-15T01:10:39;39.97;;;23.53;;
18505;SDS011;9382;53.242;10.438;2022-11-15T01:13:06;40.60;;;22.33;;
18505;SDS011;9382;53.242;10.438;2022-11-15T01:15:33;37.40;;;21.43;;
18505;SDS011;9382;53.242;10.438;2022-11-15T01:18:01;39.87;;;23.57;;
18505;SDS011;9382;53.242;10.438;2022-11-15T01:20:28;41.47;;;22.57;;
18505;SDS011;9382;53.242;10.438;2022-11-15T01:22:55;41.67;;;22.50;;
18505;SDS011;9382;53.242;10.438;2022-11-15T01:25:21;42.00;;;23.10;;
18505;SDS011;9382;53.242;10.438;2022-11-15T01:27:48;40.63;;;21.70;;
18505;SDS011;9382;53.242;10.438;2022-11-15T01:30:15;42.23;;;22.53;;
18505;SDS011;9382;53.242;10.438;2022-11-15T01:32:42;41.13;;;24.30;;
18505;SDS011;9382;53.242;10.438;2022-11-15T01:35:10;41.67;;;21.90;;
18505;SDS011;9382;53.242;10.438;2022-11-15T01:37:36;41.90;;;22.27;;
18505;SDS011;9382;53.242;10.438;2022-11-15T01:40:03;37.30;;;23.17;;
18505;SDS011;9382;53.242;10.438;2022-11-15T01:42:31;39.57;;;23.60;;
18505;SDS011;9382;53.242;10.438;2022-11-15T01:44:58;37.80;;;22.13;;
18505;SDS011;9382;53.242;10.438;2022-11-15T01:47:25;40.00;;;22.77;;
18505;SDS011;9382;53.242;10.438;2022-11-15T01:49:58;41.60;;;22.50;;
18505;SDS011;9382;53.242;10.438;2022-11-15T01:52:30;35.93;;;20.77;;
18505;SDS011;9382;53.242;10.438;2022-11-15T01:55:00;37.53;;;21.10;;
18505;SDS011;9382;53.242;10.438;2022-11-15T01:57:31;39.37;;;21.30;;
18505;SDS011;9382;53.242;10.438;2022-11-15T01:59:58;38.33;;;21.60;;
18505;SDS011;9382;53.242;10.438;2022-11-15T02:02:28;37.73;;;20.97;;
18505;SDS011;9382;53.242;10.438;2022-11-15T02:04:55;37.40;;;22.47;;
18505;SDS011;9382;53.242;10.438;2022-11-15T02:07:21;33.67;;;19.93;;
18505;SDS011;9382;53.242;10.438;2022-11-15T02:09:50;35.77;;;21.93;;
18505;SDS011;9382;53.242;10.438;2022-11-15T02:12:19;39.07;;;21.80;;
18505;SDS011;9382;53.242;10.438;2022-11-15T02:14:47;34.23;;;20.27;;
18505;SDS011;9382;53.242;10.438;2022-11-15T02:17:21;35.20;;;21.37;;
18505;SDS011;9382;53.242;10.438;2022-11-15T02:20:16;34.47;;;20.80;;
18505;SDS011;9382;53.242;10.438;2022-11-15T02:23:08;34.87;;;19.50;;
18505;SDS011;9382;53.242;10.438;2022-11-15T02:26:07;35.30;;;20.90;;
18505;SDS011;9382;53.242;10.438;2022-11-15T02:28:57;35.80;;;20.90;;
18505;SDS011;9382;53.242;10.438;2022-11-15T02:31:29;34.83;;;19.67;;
18505;SDS011;9382;53.242;10.438;2022-11-15T02:34:07;36.40;;;19.83;;
18505;SDS011;9382;53.242;10.438;2022-11-15T02:36:41;35.73;;;20.60;;
18505;SDS011;9382;53.242;10.438;2022-11-15T02:39:17;38.00;;;20.63;;
18505;SDS011;9382;53.242;10.438;2022-11-15T02:41:55;35.23;;;21.57;;
18505;SDS011;9382;53.242;10.438;2022-11-15T02:44:26;36.00;;;21.83;;
18505;SDS011;9382;53.242;10.438;2022-11-15T02:47:01;40.53;;;21.10;;
18505;SDS011;9382;53.242;10.438;2022-11-15T02:49:41;36.70;;;20.93;;
18505;SDS011;9382;53.242;10.438;2022-11-15T02:52:14;38.80;;;20.90;;
18505;SDS011;9382;53.242;10.438;2022-11-15T02:54:41;35.80;;;19.73;;
18505;SDS011;9382;53.242;10.438;2022-11-15T02:57:10;34.80;;;19.60;;
18505;SDS011;9382;53.242;10.438;2022-11-15T02:59:49;35.97;;;20.53;;
18505;SDS011;9382;53.242;10.438;2022-11-15T03:02:33;37.27;;;20.57;;
18505;SDS011;9382;53.242;10.438;2022-11-15T03:05:10;38.63;;;20.57;;
18505;SDS011;9382;53.242;10.438;2022-11-15T03:07:44;37.53;;;20.37;;
18505;SDS011;9382;53.242;10.438;2022-11-15T03:10:20;41.20;;;21.37;;
18505;SDS011;9382;53.242;10.438;2022-11-15T03:12:52;39.20;;;21.70;;
18505;SDS011;9382;53.242;10.438;2022-11-15T03:15:24;37.50;;;20.67;;
18505;SDS011;9382;53.242;10.438;2022-11-15T03:17:57;35.00;;;20.10;;
18505;SDS011;9382;53.242;10.438;2022-11-15T03:20:28;37.80;;;20.43;;
18505;SDS011;9382;53.242;10.438;2022-11-15T03:22:58;37.97;;;19.97;;
18505;SDS011;9382;53.242;10.438;2022-11-15T03:25:28;36.83;;;20.37;;
18505;SDS011;9382;53.242;10.438;2022-11-15T03:27:57;31.73;;;18.10;;
18505;SDS011;9382;53.242;10.438;2022-11-15T03:30:28;35.90;;;20.97;;
18505;SDS011;9382;53.242;10.438;2022-11-15T03:32:57;34.90;;;19.10;;
18505;SDS011;9382;53.242;10.438;2022-11-15T03:35:27;34.90;;;18.97;;
18505;SDS011;9382;53.242;10.438;2022-11-15T03:37:57;32.57;;;19.83;;
18505;SDS011;9382;53.242;10.438;2022-11-15T03:40:30;33.40;;;18.60;;
18505;SDS011;9382;53.242;10.438;2022-11-15T03:43:04;36.67;;;18.70;;
18505;SDS011;9382;53.242;10.438;2022-11-15T03:45:38;33.00;;;19.20;;
18505;SDS011;9382;53.242;10.438;2022-11-15T03:48:12;35.23;;;19.50;;
18505;SDS011;9382;53.242;10.438;2022-11-15T03:50:42;33.77;;;19.20;;
18505;SDS011;9382;53.242;10.438;2022-11-15T03:53:10;37.43;;;19.87;;
18505;SDS011;9382;53.242;10.438;2022-11-15T03:55:38;36.80;;;19.80;;
18505;SDS011;9382;53.242;10.438;2022-11-15T03:58:05;35.93;;;19.93;;
18505;SDS011;9382;53.242;10.438;2022-11-15T04:00:32;34.30;;;18.30;;
18505;SDS011;9382;53.242;10.438;2022-11-15T04:02:59;32.63;;;18.20;;
18505;SDS011;9382;53.242;10.438;2022-11-15T04:05:27;34.67;;;18.90;;
18505;SDS011;9382;53.242;10.438;2022-11-15T04:07:54;35.03;;;20.10;;
18505;SDS011;9382;53.242;10.438;2022-11-15T04:10:21;33.47;;;18.23;;
18505;SDS011;9382;53.242;10.438;2022-11-15T04:12:47;31.67;;;17.40;;
18505;SDS011;9382;53.242;10.438;2022-11-15T04:15:15;33.33;;;18.53;;
18505;SDS011;9382;53.242;10.438;2022-11-15T04:17:43;34.90;;;19.13;;
18505;SDS011;9382;53.242;10.438;2022-11-15T04:20:13;30.93;;;17.57;;
18505;SDS011;9382;53.242;10.438;2022-11-15T04:23:03;31.57;;;18.40;;
18505;SDS011;9382;53.242;10.438;2022-11-15T04:25:49;31.67;;;18.40;;
18505;SDS011;9382;53.242;10.438;2022-11-15T04:28:17;31.47;;;18.23;;
18505;SDS011;9382;53.242;10.438;2022-11-15T04:30:44;33.40;;;18.10;;
18505;SDS011;9382;53.242;10.438;2022-11-15T04:33:11;32.10;;;18.33;;
18505;SDS011;9382;53.242;10.438;2022-11-15T04:35:38;34.73;;;19.37;;
18505;SDS011;9382;53.242;10.438;2022-11-15T04:38:07;31.70;;;19.10;;
18505;SDS011;9382;53.242;10.438;2022-11-15T04:40:34;33.83;;;18.57;;
18505;SDS011;9382;53.242;10.438;2022-11-15T04:43:01;33.43;;;18.77;;
18505;SDS011;9382;53.242;10.438;2022-11-15T04:45:28;36.30;;;20.10;;
18505;SDS011;9382;53.242;10.438;2022-11-15T04:47:55;34.80;;;19.00;;
18505;SDS011;9382;53.242;10.438;2022-11-15T04:50:21;36.50;;;20.10;;
18505;SDS011;9382;53.242;10.438;2022-11-15T04:52:50;35.33;;;19.23;;
18505;SDS011;9382;53.242;10.438;2022-11-15T04:55:19;34.67;;;18.83;;
18505;SDS011;9382;53.242;10.438;2022-11-15T04:57:46;34.63;;;19.33;;
18505;SDS011;9382;53.242;10.438;2022-11-15T05:00:14;34.37;;;20.40;;
18505;SDS011;9382;53.242;10.438;2022-11-15T05:02:42;37.70;;;19.83;;
18505;SDS011;9382;53.242;10.438;2022-11-15T05:05:26;34.33;;;19.97;;
18505;SDS011;9382;53.242;10.438;2022-11-15T05:07:53;35.43;;;19.43;;
18505;SDS011;9382;53.242;10.438;2022-11-15T05:10:21;35.23;;;19.53;;
18505;SDS011;9382;53.242;10.438;2022-11-15T05:12:48;33.87;;;19.93;;
18505;SDS011;9382;53.242;10.438;2022-11-15T05:15:15;36.30;;;18.93;;
18505;SDS011;9382;53.242;10.438;2022-11-15T05:17:42;32.27;;;18.07;;
18505;SDS011;9382;53.242;10.438;2022-11-15T05:20:09;35.07;;;19.07;;
18505;SDS011;9382;53.242;10.438;2022-11-15T05:22:37;36.07;;;18.17;;
18505;SDS011;9382;53.242;10.438;2022-11-15T05:25:04;33.30;;;18.43;;
18505;SDS011;9382;53.242;10.438;2022-11-15T05:27:33;35.03;;;20.63;;
18505;SDS011;9382;53.242;10.438;2022-11-15T05:30:00;31.70;;;17.97;;
18505;SDS011;9382;53.242;10.438;2022-11-15T05:32:27;33.57;;;20.30;;
18505;SDS011;9382;53.242;10.438;2022-11-15T05:34:54;36.13;;;18.37;;
18505;SDS011;9382;53.242;10.438;2022-11-15T05:37:21;34.57;;;19.60;;
18505;SDS011;9382;53.242;10.438;2022-11-15T05:39:48;32.07;;;18.70;;
18505;SDS011;9382;53.242;10.438;2022-11-15T05:42:15;30.83;;;18.20;;
18505;SDS011;9382;53.242;10.438;2022-11-15T05:44:45;32.20;;;18.30;;
18505;SDS011;9382;53.242;10.438;2022-11-15T05:47:14;34.30;;;18.53;;
18505;SDS011;9382;53.242;10.438;2022-11-15T05:49:43;31.40;;;18.33;;
18505;SDS011;9382;53.242;10.438;2022-11-15T05:52:12;30.47;;;18.20;;
18505;SDS011;9382;53.242;10.438;2022-11-15T05:54:41;33.67;;;19.03;;
18505;SDS011;9382;53.242;10.438;2022-11-15T05:57:08;34.13;;;18.80;;
18505;SDS011;9382;53.242;10.438;2022-11-15T05:59:35;34.30;;;19.13;;
18505;SDS011;9382;53.242;10.438;2022-11-15T06:02:04;35.90;;;19.63;;
18505;SDS011;9382;53.242;10.438;2022-11-15T06:04:31;34.53;;;19.53;;
18505;SDS011;9382;53.242;10.438;2022-11-15T06:06:57;30.57;;;18.50;;
18505;SDS011;9382;53.242;10.438;2022-11-15T06:09:24;33.33;;;19.90;;
18505;SDS011;9382;53.242;10.438;2022-11-15T06:11:51;33.23;;;18.90;;
18505;SDS011;9382;53.242;10.438;2022-11-15T06:14:18;35.83;;;18.77;;
18505;SDS011;9382;53.242;10.438;2022-11-15T06:16:44;33.27;;;18.10;;
18505;SDS011;9382;53.242;10.438;2022-11-15T06:19:12;34.50;;;19.37;;
18505;SDS011;9382;53.242;10.438;2022-11-15T06:21:39;31.73;;;18.37;;
18505;SDS011;9382;53.242;10.438;2022-11-15T06:24:06;31.57;;;18.40;;
18505;SDS011;9382;53.242;10.438;2022-11-15T06:26:33;40.27;;;20.20;;
18505;SDS011;9382;53.242;10.438;2022-11-15T06:29:00;32.87;;;19.33;;
18505;SDS011;9382;53.242;10.438;2022-11-15T06:31:28;31.60;;;18.57;;
18505;SDS011;9382;53.242;10.438;2022-11-15T06:33:55;32.30;;;19.30;;
18505;SDS011;9382;53.242;10.438;2022-11-15T06:36:23;33.97;;;19.53;;
18505;SDS011;9382;53.242;10.438;2022-11-15T06:38:49;32.40;;;17.90;;
18505;SDS011;9382;53.242;10.438;2022-11-15T06:41:16;33.03;;;20.00;;
18505;SDS011;9382;53.242;10.438;2022-11-15T06:43:43;31.83;;;18.90;;
18505;SDS011;9382;53.242;10.438;2022-11-15T06:46:10;31.13;;;18.73;;
18505;SDS011;9382;53.242;10.438;2022-11-15T06:48:37;31.23;;;18.43;;
18505;SDS011;9382;53.242;10.438;2022-11-15T06:51:04;35.17;;;19.13;;
18505;SDS011;9382;53.242;10.438;2022-11-15T06:53:33;31.80;;;17.93;;
18505;SDS011;9382;53.242;10.438;2022-11-15T06:56:01;34.73;;;18.20;;
18505;SDS011;9382;53.242;10.438;2022-11-15T06:58:28;34.27;;;17.93;;
18505;SDS011;9382;53.242;10.438;2022-11-15T07:00:58;29.63;;;19.50;;
18505;SDS011;9382;53.242;10.438;2022-11-15T07:03:26;32.57;;;19.70;;
18505;SDS011;9382;53.242;10.438;2022-11-15T07:05:53;31.90;;;19.03;;
18505;SDS011;9382;53.242;10.438;2022-11-15T07:08:20;30.83;;;18.67;;
18505;SDS011;9382;53.242;10.438;2022-11-15T07:10:49;31.83;;;18.37;;
18505;SDS011;9382;53.242;10.438;2022-11-15T07:13:16;29.63;;;18.40;;
18505;SDS011;9382;53.242;10.438;2022-11-15T07:15:42;30.23;;;17.70;;
18505;SDS011;9382;53.242;10.438;2022-11-15T07:18:09;27.53;;;17.23;;
18505;SDS011;9382;53.242;10.438;2022-11-15T07:20:36;30.87;;;18.00;;
18505;SDS011;9382;53.242;10.438;2022-11-15T07:23:03;28.47;;;17.87;;
18505;SDS011;9382;53.242;10.438;2022-11-15T07:25:31;33.83;;;18.70;;
18505;SDS011;9382;53.242;10.438;2022-11-15T07:27:59;33.03;;;18.30;;
18505;SDS011;9382;53.242;10.438;2022-11-15T07:30:26;27.97;;;17.57;;
18505;SDS011;9382;53.242;10.438;2022-11-15T07:32:54;30.60;;;18.33;;
18505;SDS011;9382;53.242;10.438;2022-11-15T07:35:21;30.40;;;17.73;;
18505;SDS011;9382;53.242;10.438;2022-11-15T07:37:54;28.90;;;17.67;;
18505;SDS011;9382;53.242;10.438;2022-11-15T07:40:22;30.37;;;17.50;;
18505;SDS011;9382;53.242;10.438;2022-11-15T07:42:49;26.13;;;17.23;;
18505;SDS011;9382;53.242;10.438;2022-11-15T07:45:20;27.20;;;17.13;;
18505;SDS011;9382;53.242;10.438;2022-11-15T07:47:47;25.53;;;16.27;;
18505;SDS011;9382;53.242;10.438;2022-11-15T07:50:14;27.43;;;15.70;;
18505;SDS011;9382;53.242;10.438;2022-11-15T07:52:42;28.40;;;16.80;;
18505;SDS011;9382;53.242;10.438;2022-11-15T07:55:09;27.90;;;16.87;;
18505;SDS011;9382;53.242;10.438;2022-11-15T07:57:36;25.43;;;16.50;;
18505;SDS011;9382;53.242;10.438;2022-11-15T08:00:04;23.77;;;14.83;;
18505;SDS011;9382;53.242;10.438;2022-11-15T08:02:33;27.07;;;15.93;;
18505;SDS011;9382;53.242;10.438;2022-11-15T08:05:00;28.63;;;15.47;;
18505;SDS011;9382;53.242;10.438;2022-11-15T08:07:28;24.80;;;15.47;;
18505;SDS011;9382;53.242;10.438;2022-11-15T08:09:55;25.07;;;15.53;;
18505;SDS011;9382;53.242;10.438;2022-11-15T08:12:22;26.87;;;16.00;;
18505;SDS011;9382;53.242;10.438;2022-11-15T08:14:48;27.07;;;15.63;;
18505;SDS011;9382;53.242;10.438;2022-11-15T08:17:15;24.57;;;15.03;;
18505;SDS011;9382;53.242;10.438;2022-11-15T08:19:43;24.70;;;15.20;;
18505;SDS011;9382;53.242;10.438;2022-11-15T08:22:10;22.87;;;15.17;;
18505;SDS011;9382;53.242;10.438;2022-11-15T08:24:37;22.87;;;14.40;;
18505;SDS011;9382;53.242;10.438;2022-11-15T08:27:03;26.70;;;15.47;;
18505;SDS011;9382;53.242;10.438;2022-11-15T08:29:39;21.53;;;13.83;;
18505;SDS011;9382;53.242;10.438;2022-11-15T08:32:07;21.07;;;14.00;;
18505;SDS011;9382;53.242;10.438;2022-11-15T08:34:34;23.07;;;13.70;;
18505;SDS011;9382;53.242;10.438;2022-11-15T08:37:02;21.30;;;14.20;;
18505;SDS011;9382;53.242;10.438;2022-11-15T08:39:29;19.23;;;13.03;;
18505;SDS011;9382;53.242;10.438;2022-11-15T08:41:55;22.90;;;14.33;;
18505;SDS011;9382;53.242;10.438;2022-11-15T08:44:22;21.57;;;14.23;;
18505;SDS011;9382;53.242;10.438;2022-11-15T08:46:50;22.67;;;13.83;;
18505;SDS011;9382;53.242;10.438;2022-11-15T08:49:16;20.30;;;13.27;;
18505;SDS011;9382;53.242;10.438;2022-11-15T08:51:43;20.47;;;13.93;;
18505;SDS011;9382;53.242;10.438;2022-11-15T08:54:11;23.13;;;13.23;;
18505;SDS011;9382;53.242;10.438;2022-11-15T08:56:38;21.33;;;13.20;;
18505;SDS011;9382;53.242;10.438;2022-11-15T08:59:04;22.33;;;14.77;;
18505;SDS011;9382;53.242;10.438;2022-11-15T09:01:31;20.47;;;13.50;;
18505;SDS011;9382;53.242;10.438;2022-11-15T09:03:58;19.80;;;12.83;;
18505;SDS011;9382;53.242;10.438;2022-11-15T09:06:25;20.90;;;13.37;;
18505;SDS011;9382;53.242;10.438;2022-11-15T09:08:52;18.63;;;13.10;;
18505;SDS011;9382;53.242;10.438;2022-11-15T09:11:20;21.10;;;12.77;;
18505;SDS011;9382;53.242;10.438;2022-11-15T09:13:48;21.53;;;13.90;;
18505;SDS011;9382;53.242;10.438;2022-11-15T09:16:15;25.80;;;13.80;;
18505;SDS011;9382;53.242;10.438;2022-11-15T09:18:42;21.73;;;13.50;;
18505;SDS011;9382;53.242;10.438;2022-11-15T09:21:09;19.97;;;13.07;;
18505;SDS011;9382;53.242;10.438;2022-11-15T09:23:36;23.53;;;13.37;;
18505;SDS011;9382;53.242;10.438;2022-11-15T09:26:03;19.53;;;12.53;;
18505;SDS011;9382;53.242;10.438;2022-11-15T09:28:32;18.43;;;11.97;;
18505;SDS011;9382;53.242;10.438;2022-11-15T09:31:01;19.03;;;12.70;;
18505;SDS011;9382;53.242;10.438;2022-11-15T09:33:29;20.80;;;12.30;;
18505;SDS011;9382;53.242;10.438;2022-11-15T09:35:59;19.23;;;12.83;;
18505;SDS011;9382;53.242;10.438;2022-11-15T09:38:26;17.27;;;11.80;;
18505;SDS011;9382;53.242;10.438;2022-11-15T09:40:55;20.77;;;11.47;;
18505;SDS011;9382;53.242;10.438;2022-11-15T09:43:37;16.53;;;11.23;;
18505;SDS011;9382;53.242;10.438;2022-11-15T09:46:12;17.90;;;10.17;;
18505;SDS011;9382;53.242;10.438;2022-11-15T09:48:51;17.13;;;9.87;;
18505;SDS011;9382;53.242;10.438;2022-11-15T09:51:25;14.23;;;9.43;;
18505;SDS011;9382;53.242;10.438;2022-11-15T09:54:00;14.90;;;9.57;;
18505;SDS011;9382;53.242;10.438;2022-11-15T09:56:30;14.87;;;9.30;;
18505;SDS011;9382;53.242;10.438;2022-11-15T09:59:03;13.90;;;9.33;;
18505;SDS011;9382;53.242;10.438;2022-11-15T10:01:42;16.67;;;9.67;;
18505;SDS011;9382;53.242;10.438;2022-11-15T10:04:13;15.23;;;9.37;;
18505;SDS011;9382;53.242;10.438;2022-11-15T10:06:42;14.50;;;9.33;;
18505;SDS011;9382;53.242;10.438;2022-11-15T10:09:13;12.80;;;8.33;;
18505;SDS011;9382;53.242;10.438;2022-11-15T10:11:43;12.70;;;8.00;;
18505;SDS011;9382;53.242;10.438;2022-11-15T10:14:13;13.90;;;8.47;;
18505;SDS011;9382;53.242;10.438;2022-11-15T10:19:52;12.77;;;7.97;;
18505;SDS011;9382;53.242;10.438;2022-11-15T10:22:27;14.10;;;8.80;;
18505;SDS011;9382;53.242;10.438;2022-11-15T10:25:03;16.67;;;8.40;;
18505;SDS011;9382;53.242;10.438;2022-11-15T10:27:40;17.77;;;8.43;;
18505;SDS011;9382;53.242;10.438;2022-11-15T10:30:12;13.63;;;8.23;;
18505;SDS011;9382;53.242;10.438;2022-11-15T10:32:42;14.17;;;8.40;;
18505;SDS011;9382;53.242;10.438;2022-11-15T10:35:17;13.77;;;8.50;;
18505;SDS011;9382;53.242;10.438;2022-11-15T10:37:45;12.90;;;8.10;;
18505;SDS011;9382;53.242;10.438;2022-11-15T10:40:15;16.87;;;9.03;;
18505;SDS011;9382;53.242;10.438;2022-11-15T10:42:43;14.67;;;8.40;;
18505;SDS011;9382;53.242;10.438;2022-11-15T10:45:23;13.20;;;8.50;;
18505;SDS011;9382;53.242;10.438;2022-11-15T10:47:52;12.17;;;7.97;;
18505;SDS011;9382;53.242;10.438;2022-11-15T10:50:27;12.50;;;8.37;;
18505;SDS011;9382;53.242;10.438;2022-11-15T10:52:55;12.47;;;7.50;;
18505;SDS011;9382;53.242;10.438;2022-11-15T10:55:23;12.10;;;7.50;;
18505;SDS011;9382;53.242;10.438;2022-11-15T10:57:53;13.20;;;7.30;;
18505;SDS011;9382;53.242;10.438;2022-11-15T11:00:30;9.87;;;6.77;;
18505;SDS011;9382;53.242;10.438;2022-11-15T11:03:01;11.33;;;6.90;;
18505;SDS011;9382;53.242;10.438;2022-11-15T11:05:29;11.73;;;6.73;;
18505;SDS011;9382;53.242;10.438;2022-11-15T11:07:59;10.57;;;6.40;;
18505;SDS011;9382;53.242;10.438;2022-11-15T11:10:27;9.93;;;6.43;;
18505;SDS011;9382;53.242;10.438;2022-11-15T11:12:54;10.27;;;6.53;;
18505;SDS011;9382;53.242;10.438;2022-11-15T11:15:22;11.60;;;7.03;;
18505;SDS011;9382;53.242;10.438;2022-11-15T11:17:57;10.40;;;6.93;;
18505;SDS011;9382;53.242;10.438;2022-11-15T11:20:30;10.33;;;6.53;;
18505;SDS011;9382;53.242;10.438;2022-11-15T11:23:06;10.37;;;6.63;;
18505;SDS011;9382;53.242;10.438;2022-11-15T11:25:46;12.50;;;7.07;;
18505;SDS011;9382;53.242;10.438;2022-11-15T11:28:25;11.23;;;7.30;;
18505;SDS011;9382;53.242;10.438;2022-11-15T11:31:07;12.67;;;7.23;;
18505;SDS011;9382;53.242;10.438;2022-11-15T11:33:48;12.00;;;7.20;;
18505;SDS011;9382;53.242;10.438;2022-11-15T11:36:23;12.10;;;7.13;;
18505;SDS011;9382;53.242;10.438;2022-11-15T11:38:56;10.23;;;7.00;;
18505;SDS011;9382;53.242;10.438;2022-11-15T11:41:30;11.23;;;6.57;;
18505;SDS011;9382;53.242;10.438;2022-11-15T11:44:18;9.07;;;6.23;;
18505;SDS011;9382;53.242;10.438;2022-11-15T11:46:55;10.87;;;7.30;;
18505;SDS011;9382;53.242;10.438;2022-11-15T11:49:27;8.67;;;6.87;;
18505;SDS011;9382;53.242;10.438;2022-11-15T11:52:00;9.20;;;6.80;;
18505;SDS011;9382;53.242;10.438;2022-11-15T11:54:31;10.57;;;6.33;;
18505;SDS011;9382;53.242;10.438;2022-11-15T11:57:04;11.37;;;6.23;;
18505;SDS011;9382;53.242;10.438;2022-11-15T11:59:37;8.93;;;6.07;;
18505;SDS011;9382;53.242;10.438;2022-11-15T12:02:12;9.43;;;6.30;;
18505;SDS011;9382;53.242;10.438;2022-11-15T12:04:44;7.47;;;5.97;;
18505;SDS011;9382;53.242;10.438;2022-11-15T12:07:15;10.40;;;5.70;;
18505;SDS011;9382;53.242;10.438;2022-11-15T12:09:48;8.40;;;6.00;;
18505;SDS011;9382;53.242;10.438;2022-11-15T12:12:23;9.33;;;6.03;;
18505;SDS011;9382;53.242;10.438;2022-11-15T12:14:56;7.47;;;5.47;;
18505;SDS011;9382;53.242;10.438;2022-11-15T12:17:28;7.63;;;5.83;;
18505;SDS011;9382;53.242;10.438;2022-11-15T12:19:58;7.93;;;5.60;;
18505;SDS011;9382;53.242;10.438;2022-11-15T12:22:33;7.23;;;5.60;;
18505;SDS011;9382;53.242;10.438;2022-11-15T12:25:05;8.40;;;5.87;;
18505;SDS011;9382;53.242;10.438;2022-11-15T12:27:41;8.17;;;5.33;;
18505;SDS011;9382;53.242;10.438;2022-11-15T12:30:12;9.73;;;6.23;;
18505;SDS011;9382;53.242;10.438;2022-11-15T12:32:48;10.33;;;5.63;;
18505;SDS011;9382;53.242;10.438;2022-11-15T12:35:23;8.00;;;5.57;;
18505;SDS011;9382;53.242;10.438;2022-11-15T12:37:54;9.70;;;5.87;;
18505;SDS011;9382;53.242;10.438;2022-11-15T12:40:25;8.33;;;5.90;;
18505;SDS011;9382;53.242;10.438;2022-11-15T12:46:06;10.03;;;6.40;;
18505;SDS011;9382;53.242;10.438;2022-11-15T12:48:45;9.53;;;5.90;;
18505;SDS011;9382;53.242;10.438;2022-11-15T12:51:16;9.37;;;6.23;;
18505;SDS011;9382;53.242;10.438;2022-11-15T12:53:43;10.33;;;6.33;;
18505;SDS011;9382;53.242;10.438;2022-11-15T12:56:22;10.30;;;6.53;;
18505;SDS011;9382;53.242;10.438;2022-11-15T12:58:51;10.10;;;7.43;;
18505;SDS011;9382;53.242;10.438;2022-11-15T13:04:22;11.33;;;6.70;;
18505;SDS011;9382;53.242;10.438;2022-11-15T13:06:52;8.73;;;6.00;;
18505;SDS011;9382;53.242;10.438;2022-11-15T13:15:33;11.50;;;6.97;;
18505;SDS011;9382;53.242;10.438;2022-11-15T13:20:55;8.77;;;6.23;;
18505;SDS011;9382;53.242;10.438;2022-11-15T13:23:23;9.37;;;5.80;;
18505;SDS011;9382;53.242;10.438;2022-11-15T13:26:08;13.20;;;6.77;;
18505;SDS011;9382;53.242;10.438;2022-11-15T13:28:39;9.57;;;6.63;;
18505;SDS011;9382;53.242;10.438;2022-11-15T13:31:21;10.97;;;6.80;;
18505;SDS011;9382;53.242;10.438;2022-11-15T13:33:55;10.20;;;6.73;;
18505;SDS011;9382;53.242;10.438;2022-11-15T13:36:24;11.67;;;6.73;;
18505;SDS011;9382;53.242;10.438;2022-11-15T13:38:56;11.63;;;6.80;;
18505;SDS011;9382;53.242;10.438;2022-11-15T13:41:24;9.17;;;6.73;;
18505;SDS011;9382;53.242;10.438;2022-11-15T13:43:53;9.87;;;6.40;;
18505;SDS011;9382;53.242;10.438;2022-11-15T13:46:21;9.93;;;6.47;;
18505;SDS011;9382;53.242;10.438;2022-11-15T13:48:53;8.60;;;6.07;;
18505;SDS011;9382;53.242;10.438;2022-11-15T13:51:22;7.83;;;6.30;;
18505;SDS011;9382;53.242;10.438;2022-11-15T13:53:54;9.47;;;6.63;;
18505;SDS011;9382;53.242;10.438;2022-11-15T13:56:25;9.97;;;6.60;;
18505;SDS011;9382;53.242;10.438;2022-11-15T13:58:53;8.67;;;6.80;;
18505;SDS011;9382;53.242;10.438;2022-11-15T14:01:20;10.37;;;7.07;;
18505;SDS011;9382;53.242;10.438;2022-11-15T14:03:55;10.77;;;6.90;;
18505;SDS011;9382;53.242;10.438;2022-11-15T14:06:24;10.27;;;6.73;;
18505;SDS011;9382;53.242;10.438;2022-11-15T14:09:02;9.13;;;7.03;;
18505;SDS011;9382;53.242;10.438;2022-11-15T14:11:49;10.07;;;7.17;;
18505;SDS011;9382;53.242;10.438;2022-11-15T14:14:16;9.50;;;6.87;;
18505;SDS011;9382;53.242;10.438;2022-11-15T14:16:47;10.40;;;6.90;;
18505;SDS011;9382;53.242;10.438;2022-11-15T14:19:36;9.67;;;6.77;;
18505;SDS011;9382;53.242;10.438;2022-11-15T14:22:08;7.90;;;6.33;;
18505;SDS011;9382;53.242;10.438;2022-11-15T14:24:38;8.20;;;6.20;;
18505;SDS011;9382;53.242;10.438;2022-11-15T14:29:54;9.73;;;6.50;;
18505;SDS011;9382;53.242;10.438;2022-11-15T14:32:21;11.20;;;7.83;;
18505;SDS011;9382;53.242;10.438;2022-11-15T14:34:53;13.77;;;8.43;;
18505;SDS011;9382;53.242;10.438;2022-11-15T14:37:21;12.90;;;7.37;;
18505;SDS011;9382;53.242;10.438;2022-11-15T14:39:51;13.63;;;7.37;;
18505;SDS011;9382;53.242;10.438;2022-11-15T14:42:19;8.67;;;6.23;;
18505;SDS011;9382;53.242;10.438;2022-11-15T14:44:46;9.57;;;6.60;;
18505;SDS011;9382;53.242;10.438;2022-11-15T14:47:13;9.50;;;6.70;;
18505;SDS011;9382;53.242;10.438;2022-11-15T14:49:40;10.77;;;6.60;;
18505;SDS011;9382;53.242;10.438;2022-11-15T14:52:12;10.20;;;6.87;;
18505;SDS011;9382;53.242;10.438;2022-11-15T14:54:50;9.40;;;6.30;;
18505;SDS011;9382;53.242;10.438;2022-11-15T14:57:17;9.20;;;6.10;;
18505;SDS011;9382;53.242;10.438;2022-11-15T14:59:44;11.30;;;6.77;;
18505;SDS011;9382;53.242;10.438;2022-11-15T15:02:13;8.07;;;5.80;;
18505;SDS011;9382;53.242;10.438;2022-11-15T15:04:42;9.30;;;6.30;;
18505;SDS011;9382;53.242;10.438;2022-11-15T15:07:09;8.73;;;6.47;;